French Lick, IN

3:07 PM EDT on August 23, 2014 (GMT -0400)
Rusk Indiana | Change Station
CLOSE
Current Station
Personal Weather Station
Location: Shoals, IN
Elevation: 669 ft
Nearby Weather Stations
Active Advisory: Heat Advisory

Elev 669 ft 38.55 °N, 86.74 °W | Updated 20 seconds ago

Scattered Clouds
Scattered Clouds
86.4 °F
Feels Like 103 °F
N
0.0
Wind Variable Wind from SE
Gusts 1.7 mph

Today
High -- | Low -- °F
--% Chance of Precip.
Yesterday
High -- | Low -- °F
Precip. -- in
7:07 AM 8:29 PM
Waning Crescent, 3% visible
Pressure 29.96 in
Visibility 10.0 miles
Clouds Scattered Clouds 2300 ft
Heat Index 103 °F
Dew Point 81 °F
Humidity 84%
Rainfall 0.78 in
Snow Depth Not available.
UV 8 out of 12
Pollen 9.40 out of 12
Ozone Good
PM2.5 Unhealthy for Sensitive Groups
Flu Activity Not available.
METAR KDCY 231855Z AUTO 19004KT 10SM SCT023 31/26 A2996 RMK AO2 LTG DSNT N T03100260

More Conditions Fewer Conditions

Pressure 29.96 in
Visibility 10.0 miles
Clouds Scattered Clouds 2300 ft
Heat Index 103 °F
Dew Point 81 °F
Humidity 84%
Rainfall 0.78 in
Snow Depth Not available.
UV 8 out of 12
Pollen 9.40 out of 12
Ozone Good
PM2.5 Unhealthy for Sensitive Groups
Flu Activity Not available.
METAR KDCY 231855Z AUTO 19004KT 10SM SCT023 31/26 A2996 RMK AO2 LTG DSNT N T03100260

More Conditions Fewer Conditions

10-Day Weather Forecast

Almanac

Astronomy

Aug. 23, 2014 Rise Set
Actual Time 7:07 AM EDT 8:29 PM EDT
Civil Twilight 6:40 AM EDT 8:57 PM EDT
Nautical Twilight 6:06 AM EDT 9:30 PM EDT
Astronomical Twilight 5:31 AM EDT 10:05 PM EDT
Moon 5:24 AM EDT 7:13 PM EDT
Length of Visible Light 14h 17m
Length of Day
13h 21m
Tomorrow will be 2m 20s shorter.
Waning Crescent, 3% of the Moon is Illuminated
Today
Waning Crescent
Aug 25
New
Sep 2
First Quarter
Sep 8
Full
Sep 15
Last Quarter

Today's Extremes

State Highs State Lows

Community

WunderPhotos

Upload Photos

1,746,580 photos uploaded!

WunderBlogs® & News

Nearby

Air Quality

  Air Quality AQ Index Pollutant
Yesterday Good
PM10
Yesterday Good
OZONE
Current Unhealthy for Sensitive Groups
PM2.5
Current Good
OZONE
Saturday Moderate
PM2.5
Saturday Good
OZONE
Sunday Moderate
PM2.5
Sunday Moderate
OZONE
Monday Moderate
PM2.5
Monday Moderate
OZONE

Snow Depth

Station Depth Elevation
No new snow has been reported.

Earthquake Activity

City Distance Mag. Time & Date
No recent earthquake activity has been reported nearby.
Minimum magnitude displayed is 2.5.

Coastal Water Temperatures

Place Temperature
No Stations Reporting

Nearby Weather Stations